sensor_id;sensor_type;location;lat;lon;timestamp;temperature;humidity
25554;DHT22;13446;50.926;5.332;2022-10-30T00:01:55;18.70;99.90
25554;DHT22;13446;50.926;5.332;2022-10-30T00:04:21;18.70;99.90
25554;DHT22;13446;50.926;5.332;2022-10-30T00:06:47;18.60;99.90
25554;DHT22;13446;50.926;5.332;2022-10-30T00:09:12;18.70;99.90
25554;DHT22;13446;50.926;5.332;2022-10-30T00:11:40;18.60;99.90
25554;DHT22;13446;50.926;5.332;2022-10-30T00:14:05;18.50;99.90
25554;DHT22;13446;50.926;5.332;2022-10-30T00:16:31;18.50;99.90
25554;DHT22;13446;50.926;5.332;2022-10-30T00:18:57;18.40;99.90
25554;DHT22;13446;50.926;5.332;2022-10-30T00:21:22;18.40;99.90
25554;DHT22;13446;50.926;5.332;2022-10-30T00:23:48;18.50;99.90
25554;DHT22;13446;50.926;5.332;2022-10-30T00:26:14;18.40;99.90
25554;DHT22;13446;50.926;5.332;2022-10-30T00:28:40;18.50;99.90
25554;DHT22;13446;50.926;5.332;2022-10-30T00:31:06;18.40;99.90
25554;DHT22;13446;50.926;5.332;2022-10-30T00:33:31;18.30;99.90
25554;DHT22;13446;50.926;5.332;2022-10-30T00:35:57;18.30;99.90
25554;DHT22;13446;50.926;5.332;2022-10-30T00:38:23;18.20;99.90
25554;DHT22;13446;50.926;5.332;2022-10-30T00:40:49;18.10;99.90
25554;DHT22;13446;50.926;5.332;2022-10-30T00:45:55;17.90;99.90
25554;DHT22;13446;50.926;5.332;2022-10-30T00:48:23;17.90;99.90
25554;DHT22;13446;50.926;5.332;2022-10-30T00:50:49;17.90;99.90
25554;DHT22;13446;50.926;5.332;2022-10-30T00:53:15;17.90;99.90
25554;DHT22;13446;50.926;5.332;2022-10-30T00:55:43;17.80;99.90
25554;DHT22;13446;50.926;5.332;2022-10-30T00:58:10;17.80;99.90
25554;DHT22;13446;50.926;5.332;2022-10-30T01:00:37;17.90;99.90
25554;DHT22;13446;50.926;5.332;2022-10-30T01:03:03;17.90;99.90
25554;DHT22;13446;50.926;5.332;2022-10-30T01:05:29;17.90;99.90
25554;DHT22;13446;50.926;5.332;2022-10-30T01:07:55;17.80;99.90
25554;DHT22;13446;50.926;5.332;2022-10-30T01:10:21;17.80;99.90
25554;DHT22;13446;50.926;5.332;2022-10-30T01:12:47;17.80;99.90
25554;DHT22;13446;50.926;5.332;2022-10-30T01:15:13;17.70;99.90
25554;DHT22;13446;50.926;5.332;2022-10-30T01:17:46;17.70;99.90
25554;DHT22;13446;50.926;5.332;2022-10-30T01:25:35;17.60;99.90
25554;DHT22;13446;50.926;5.332;2022-10-30T01:38:23;17.60;99.90
25554;DHT22;13446;50.926;5.332;2022-10-30T01:40:49;17.60;99.90
25554;DHT22;13446;50.926;5.332;2022-10-30T01:43:15;17.60;99.90
25554;DHT22;13446;50.926;5.332;2022-10-30T01:48:13;17.60;99.90
25554;DHT22;13446;50.926;5.332;2022-10-30T02:00:44;17.30;99.90
25554;DHT22;13446;50.926;5.332;2022-10-30T02:03:10;17.30;99.90
25554;DHT22;13446;50.926;5.332;2022-10-30T02:05:38;17.30;99.90
25554;DHT22;13446;50.926;5.332;2022-10-30T02:08:05;17.30;99.90
25554;DHT22;13446;50.926;5.332;2022-10-30T02:10:31;17.30;99.90
25554;DHT22;13446;50.926;5.332;2022-10-30T02:12:57;17.30;99.90
25554;DHT22;13446;50.926;5.332;2022-10-30T02:15:23;17.30;99.90
25554;DHT22;13446;50.926;5.332;2022-10-30T02:17:49;17.30;99.90
25554;DHT22;13446;50.926;5.332;2022-10-30T02:20:18;17.30;99.90
25554;DHT22;13446;50.926;5.332;2022-10-30T02:22:44;17.30;99.90
25554;DHT22;13446;50.926;5.332;2022-10-30T02:25:10;17.40;99.90
25554;DHT22;13446;50.926;5.332;2022-10-30T02:27:35;17.20;99.90
25554;DHT22;13446;50.926;5.332;2022-10-30T02:30:01;17.20;99.90
25554;DHT22;13446;50.926;5.332;2022-10-30T02:32:27;17.20;99.90
25554;DHT22;13446;50.926;5.332;2022-10-30T02:34:52;17.20;99.90
25554;DHT22;13446;50.926;5.332;2022-10-30T02:37:17;17.20;99.90
25554;DHT22;13446;50.926;5.332;2022-10-30T02:39:43;17.20;99.90
25554;DHT22;13446;50.926;5.332;2022-10-30T02:42:09;17.10;99.90
25554;DHT22;13446;50.926;5.332;2022-10-30T02:44:34;17.00;99.90
25554;DHT22;13446;50.926;5.332;2022-10-30T02:46:59;17.00;99.90
25554;DHT22;13446;50.926;5.332;2022-10-30T02:49:25;16.90;99.90
25554;DHT22;13446;50.926;5.332;2022-10-30T02:51:50;16.90;99.90
25554;DHT22;13446;50.926;5.332;2022-10-30T02:54:16;17.00;99.90
25554;DHT22;13446;50.926;5.332;2022-10-30T02:56:41;16.90;99.90
25554;DHT22;13446;50.926;5.332;2022-10-30T02:59:08;17.00;99.90
25554;DHT22;13446;50.926;5.332;2022-10-30T03:01:34;17.10;99.90
25554;DHT22;13446;50.926;5.332;2022-10-30T03:03:59;17.00;99.90
25554;DHT22;13446;50.926;5.332;2022-10-30T03:06:25;17.00;99.90
25554;DHT22;13446;50.926;5.332;2022-10-30T03:08:51;16.90;99.90
25554;DHT22;13446;50.926;5.332;2022-10-30T03:11:17;17.10;99.90
25554;DHT22;13446;50.926;5.332;2022-10-30T03:13:43;17.10;99.90
25554;DHT22;13446;50.926;5.332;2022-10-30T03:16:10;17.00;99.90
25554;DHT22;13446;50.926;5.332;2022-10-30T03:18:37;16.90;99.90
25554;DHT22;13446;50.926;5.332;2022-10-30T03:21:03;16.80;99.90
25554;DHT22;13446;50.926;5.332;2022-10-30T03:23:29;16.80;99.90
25554;DHT22;13446;50.926;5.332;2022-10-30T03:25:55;16.90;99.90
25554;DHT22;13446;50.926;5.332;2022-10-30T03:28:21;16.90;99.90
25554;DHT22;13446;50.926;5.332;2022-10-30T03:30:47;16.90;99.90
25554;DHT22;13446;50.926;5.332;2022-10-30T03:33:13;16.90;99.90
25554;DHT22;13446;50.926;5.332;2022-10-30T03:35:39;16.90;99.90
25554;DHT22;13446;50.926;5.332;2022-10-30T03:38:04;16.90;99.90
25554;DHT22;13446;50.926;5.332;2022-10-30T03:40:30;16.90;99.90
25554;DHT22;13446;50.926;5.332;2022-10-30T03:42:55;16.80;99.90
25554;DHT22;13446;50.926;5.332;2022-10-30T03:45:20;16.80;99.90
25554;DHT22;13446;50.926;5.332;2022-10-30T03:47:46;16.80;99.90
25554;DHT22;13446;50.926;5.332;2022-10-30T03:50:12;16.90;99.90
25554;DHT22;13446;50.926;5.332;2022-10-30T03:52:37;16.80;99.90
25554;DHT22;13446;50.926;5.332;2022-10-30T03:55:03;16.80;99.90
25554;DHT22;13446;50.926;5.332;2022-10-30T03:57:28;16.70;99.90
25554;DHT22;13446;50.926;5.332;2022-10-30T03:59:54;16.70;99.90
25554;DHT22;13446;50.926;5.332;2022-10-30T04:02:19;16.80;99.90
25554;DHT22;13446;50.926;5.332;2022-10-30T04:04:45;16.70;99.90
25554;DHT22;13446;50.926;5.332;2022-10-30T04:07:10;16.70;99.90
25554;DHT22;13446;50.926;5.332;2022-10-30T04:09:36;16.70;99.90
25554;DHT22;13446;50.926;5.332;2022-10-30T04:12:01;16.60;99.90
25554;DHT22;13446;50.926;5.332;2022-10-30T04:14:27;16.60;99.90
25554;DHT22;13446;50.926;5.332;2022-10-30T04:16:52;16.60;99.90
25554;DHT22;13446;50.926;5.332;2022-10-30T04:19:18;16.60;99.90
25554;DHT22;13446;50.926;5.332;2022-10-30T04:21:43;16.60;99.90
25554;DHT22;13446;50.926;5.332;2022-10-30T04:24:12;16.60;99.90
25554;DHT22;13446;50.926;5.332;2022-10-30T04:26:40;16.60;99.90
25554;DHT22;13446;50.926;5.332;2022-10-30T04:29:05;16.60;99.90
25554;DHT22;13446;50.926;5.332;2022-10-30T04:31:31;16.50;99.90
25554;DHT22;13446;50.926;5.332;2022-10-30T04:33:56;16.50;99.90
25554;DHT22;13446;50.926;5.332;2022-10-30T04:36:22;16.50;99.90
25554;DHT22;13446;50.926;5.332;2022-10-30T04:38:54;16.50;99.90
25554;DHT22;13446;50.926;5.332;2022-10-30T04:41:19;16.40;99.90
25554;DHT22;13446;50.926;5.332;2022-10-30T04:43:47;16.40;99.90
25554;DHT22;13446;50.926;5.332;2022-10-30T04:46:12;16.40;99.90
25554;DHT22;13446;50.926;5.332;2022-10-30T04:48:38;16.40;99.90
25554;DHT22;13446;50.926;5.332;2022-10-30T04:51:05;16.30;99.90
25554;DHT22;13446;50.926;5.332;2022-10-30T04:53:33;16.30;99.90
25554;DHT22;13446;50.926;5.332;2022-10-30T04:55:59;16.30;99.90
25554;DHT22;13446;50.926;5.332;2022-10-30T04:58:24;16.20;99.90
25554;DHT22;13446;50.926;5.332;2022-10-30T05:00:50;16.20;99.90
25554;DHT22;13446;50.926;5.332;2022-10-30T05:03:22;16.10;99.90
25554;DHT22;13446;50.926;5.332;2022-10-30T05:05:48;16.10;99.90
25554;DHT22;13446;50.926;5.332;2022-10-30T05:08:19;16.10;99.90
25554;DHT22;13446;50.926;5.332;2022-10-30T05:10:45;16.10;99.90
25554;DHT22;13446;50.926;5.332;2022-10-30T05:13:10;16.10;99.90
25554;DHT22;13446;50.926;5.332;2022-10-30T05:15:36;16.10;99.90
25554;DHT22;13446;50.926;5.332;2022-10-30T05:18:02;16.10;99.90
25554;DHT22;13446;50.926;5.332;2022-10-30T05:20:27;16.00;99.90
25554;DHT22;13446;50.926;5.332;2022-10-30T05:22:54;15.90;99.90
25554;DHT22;13446;50.926;5.332;2022-10-30T05:25:19;15.90;99.90
25554;DHT22;13446;50.926;5.332;2022-10-30T05:27:45;15.80;99.90
25554;DHT22;13446;50.926;5.332;2022-10-30T05:30:10;15.80;99.90
25554;DHT22;13446;50.926;5.332;2022-10-30T05:32:36;15.70;99.90
25554;DHT22;13446;50.926;5.332;2022-10-30T05:35:02;15.70;99.90
25554;DHT22;13446;50.926;5.332;2022-10-30T05:37:27;15.70;99.90
25554;DHT22;13446;50.926;5.332;2022-10-30T05:39:53;15.70;99.90
25554;DHT22;13446;50.926;5.332;2022-10-30T05:42:18;15.60;99.90
25554;DHT22;13446;50.926;5.332;2022-10-30T05:44:44;15.70;99.90
25554;DHT22;13446;50.926;5.332;2022-10-30T05:47:09;15.70;99.90
25554;DHT22;13446;50.926;5.332;2022-10-30T05:49:35;15.60;99.90
25554;DHT22;13446;50.926;5.332;2022-10-30T05:52:01;15.40;99.90
25554;DHT22;13446;50.926;5.332;2022-10-30T05:54:26;15.40;99.90
25554;DHT22;13446;50.926;5.332;2022-10-30T05:56:52;15.40;99.90
25554;DHT22;13446;50.926;5.332;2022-10-30T05:59:17;15.40;99.90
25554;DHT22;13446;50.926;5.332;2022-10-30T06:01:43;15.40;99.90
25554;DHT22;13446;50.926;5.332;2022-10-30T06:04:08;15.30;99.90
25554;DHT22;13446;50.926;5.332;2022-10-30T06:06:34;15.30;99.90
25554;DHT22;13446;50.926;5.332;2022-10-30T06:08:59;15.20;99.90
25554;DHT22;13446;50.926;5.332;2022-10-30T06:11:25;15.20;99.90
25554;DHT22;13446;50.926;5.332;2022-10-30T06:13:50;15.40;99.90
25554;DHT22;13446;50.926;5.332;2022-10-30T06:16:16;15.50;99.90
25554;DHT22;13446;50.926;5.332;2022-10-30T06:18:42;15.70;99.90
25554;DHT22;13446;50.926;5.332;2022-10-30T06:21:07;15.70;99.90
25554;DHT22;13446;50.926;5.332;2022-10-30T06:23:33;15.60;99.90
25554;DHT22;13446;50.926;5.332;2022-10-30T06:25:58;15.40;99.90
25554;DHT22;13446;50.926;5.332;2022-10-30T06:28:24;15.10;99.90
25554;DHT22;13446;50.926;5.332;2022-10-30T06:30:50;15.00;99.90
25554;DHT22;13446;50.926;5.332;2022-10-30T06:33:15;14.90;99.90
25554;DHT22;13446;50.926;5.332;2022-10-30T06:35:42;14.70;99.90
25554;DHT22;13446;50.926;5.332;2022-10-30T06:38:07;14.80;99.90
25554;DHT22;13446;50.926;5.332;2022-10-30T06:40:36;14.70;99.90
25554;DHT22;13446;50.926;5.332;2022-10-30T06:43:01;14.80;99.90
25554;DHT22;13446;50.926;5.332;2022-10-30T06:45:27;14.80;99.90
25554;DHT22;13446;50.926;5.332;2022-10-30T06:47:52;14.90;99.90
25554;DHT22;13446;50.926;5.332;2022-10-30T06:50:19;14.90;99.90
25554;DHT22;13446;50.926;5.332;2022-10-30T06:52:46;15.00;99.90
25554;DHT22;13446;50.926;5.332;2022-10-30T06:55:12;15.00;99.90
25554;DHT22;13446;50.926;5.332;2022-10-30T06:57:38;15.00;99.90
25554;DHT22;13446;50.926;5.332;2022-10-30T07:00:04;15.20;99.90
25554;DHT22;13446;50.926;5.332;2022-10-30T07:02:29;15.30;99.90
25554;DHT22;13446;50.926;5.332;2022-10-30T07:04:55;15.20;99.90
25554;DHT22;13446;50.926;5.332;2022-10-30T07:07:20;15.30;99.90
25554;DHT22;13446;50.926;5.332;2022-10-30T07:09:46;15.40;99.90
25554;DHT22;13446;50.926;5.332;2022-10-30T07:12:11;15.30;99.90
25554;DHT22;13446;50.926;5.332;2022-10-30T07:14:37;15.40;99.90
25554;DHT22;13446;50.926;5.332;2022-10-30T07:17:03;15.50;99.90
25554;DHT22;13446;50.926;5.332;2022-10-30T07:19:28;15.50;99.90
25554;DHT22;13446;50.926;5.332;2022-10-30T07:21:54;15.60;99.90
25554;DHT22;13446;50.926;5.332;2022-10-30T07:24:20;15.60;99.90
25554;DHT22;13446;50.926;5.332;2022-10-30T07:26:45;15.70;99.90
25554;DHT22;13446;50.926;5.332;2022-10-30T07:29:10;15.70;99.90
25554;DHT22;13446;50.926;5.332;2022-10-30T07:31:36;15.80;99.90
25554;DHT22;13446;50.926;5.332;2022-10-30T07:34:01;16.00;99.90
25554;DHT22;13446;50.926;5.332;2022-10-30T07:36:27;16.20;99.90
25554;DHT22;13446;50.926;5.332;2022-10-30T07:38:53;16.40;99.90
25554;DHT22;13446;50.926;5.332;2022-10-30T07:41:18;16.70;99.90
25554;DHT22;13446;50.926;5.332;2022-10-30T07:43:44;17.30;99.90
25554;DHT22;13446;50.926;5.332;2022-10-30T07:46:11;18.10;99.90
25554;DHT22;13446;50.926;5.332;2022-10-30T07:48:37;18.80;99.90
25554;DHT22;13446;50.926;5.332;2022-10-30T07:51:02;19.10;99.90
25554;DHT22;13446;50.926;5.332;2022-10-30T07:53:28;19.40;99.90
25554;DHT22;13446;50.926;5.332;2022-10-30T07:55:54;19.90;99.90
25554;DHT22;13446;50.926;5.332;2022-10-30T07:58:19;20.50;99.90
25554;DHT22;13446;50.926;5.332;2022-10-30T08:00:45;21.30;99.90
25554;DHT22;13446;50.926;5.332;2022-10-30T08:03:13;22.00;99.90
25554;DHT22;13446;50.926;5.332;2022-10-30T08:05:39;22.90;99.90
25554;DHT22;13446;50.926;5.332;2022-10-30T08:08:04;23.80;99.90
25554;DHT22;13446;50.926;5.332;2022-10-30T08:10:30;24.30;99.90
25554;DHT22;13446;50.926;5.332;2022-10-30T08:12:56;24.60;99.90
25554;DHT22;13446;50.926;5.332;2022-10-30T08:15:21;24.80;98.50
25554;DHT22;13446;50.926;5.332;2022-10-30T08:17:48;24.70;98.00
25554;DHT22;13446;50.926;5.332;2022-10-30T08:20:15;25.10;97.60
25554;DHT22;13446;50.926;5.332;2022-10-30T08:22:45;25.10;96.30
25554;DHT22;13446;50.926;5.332;2022-10-30T08:25:11;24.80;97.10
25554;DHT22;13446;50.926;5.332;2022-10-30T08:27:36;24.80;96.40
25554;DHT22;13446;50.926;5.332;2022-10-30T08:30:02;25.30;96.10
25554;DHT22;13446;50.926;5.332;2022-10-30T08:32:27;26.00;95.30
25554;DHT22;13446;50.926;5.332;2022-10-30T08:34:53;26.40;93.40
25554;DHT22;13446;50.926;5.332;2022-10-30T08:37:18;26.40;93.20
25554;DHT22;13446;50.926;5.332;2022-10-30T08:39:44;26.70;92.50
25554;DHT22;13446;50.926;5.332;2022-10-30T08:42:09;27.40;91.30
25554;DHT22;13446;50.926;5.332;2022-10-30T08:44:35;27.70;89.00
25554;DHT22;13446;50.926;5.332;2022-10-30T08:47:00;28.20;86.60
25554;DHT22;13446;50.926;5.332;2022-10-30T08:49:26;28.80;84.00
25554;DHT22;13446;50.926;5.332;2022-10-30T08:51:52;29.30;81.70
25554;DHT22;13446;50.926;5.332;2022-10-30T08:54:17;29.50;75.00
25554;DHT22;13446;50.926;5.332;2022-10-30T08:56:43;29.30;74.70
25554;DHT22;13446;50.926;5.332;2022-10-30T08:59:08;29.40;73.30
25554;DHT22;13446;50.926;5.332;2022-10-30T09:01:34;29.70;71.50
25554;DHT22;13446;50.926;5.332;2022-10-30T09:04:00;29.80;71.20
25554;DHT22;13446;50.926;5.332;2022-10-30T09:06:26;30.00;68.70
25554;DHT22;13446;50.926;5.332;2022-10-30T09:08:53;30.40;67.00
25554;DHT22;13446;50.926;5.332;2022-10-30T09:11:18;30.60;65.20
25554;DHT22;13446;50.926;5.332;2022-10-30T09:13:44;30.30;65.60
25554;DHT22;13446;50.926;5.332;2022-10-30T09:16:09;30.40;64.40
25554;DHT22;13446;50.926;5.332;2022-10-30T09:18:35;30.60;64.40
25554;DHT22;13446;50.926;5.332;2022-10-30T09:21:02;31.00;63.90
25554;DHT22;13446;50.926;5.332;2022-10-30T09:23:27;31.50;61.30
25554;DHT22;13446;50.926;5.332;2022-10-30T09:25:55;31.20;60.70
25554;DHT22;13446;50.926;5.332;2022-10-30T09:28:21;30.30;62.20
25554;DHT22;13446;50.926;5.332;2022-10-30T09:30:47;29.50;64.50
25554;DHT22;13446;50.926;5.332;2022-10-30T09:33:18;28.90;65.90
25554;DHT22;13446;50.926;5.332;2022-10-30T09:35:43;28.10;68.20
25554;DHT22;13446;50.926;5.332;2022-10-30T09:38:10;27.50;70.80
25554;DHT22;13446;50.926;5.332;2022-10-30T09:45:45;26.70;77.70
25554;DHT22;13446;50.926;5.332;2022-10-30T09:53:13;29.60;72.30
25554;DHT22;13446;50.926;5.332;2022-10-30T09:55:46;31.60;65.60
25554;DHT22;13446;50.926;5.332;2022-10-30T10:00:47;33.80;57.80
25554;DHT22;13446;50.926;5.332;2022-10-30T10:05:58;33.30;54.20
25554;DHT22;13446;50.926;5.332;2022-10-30T10:08:27;32.90;54.40
25554;DHT22;13446;50.926;5.332;2022-10-30T10:10:56;32.10;54.70
25554;DHT22;13446;50.926;5.332;2022-10-30T10:16:13;30.80;58.00
25554;DHT22;13446;50.926;5.332;2022-10-30T10:21:28;32.00;57.10
25554;DHT22;13446;50.926;5.332;2022-10-30T10:23:57;33.50;55.00
25554;DHT22;13446;50.926;5.332;2022-10-30T10:33:59;35.80;47.80
25554;DHT22;13446;50.926;5.332;2022-10-30T10:51:49;34.50;46.20
25554;DHT22;13446;50.926;5.332;2022-10-30T10:54:17;34.20;46.70
25554;DHT22;13446;50.926;5.332;2022-10-30T10:56:44;33.40;47.50
25554;DHT22;13446;50.926;5.332;2022-10-30T10:59:12;32.40;49.40
25554;DHT22;13446;50.926;5.332;2022-10-30T11:01:39;32.80;49.60
25554;DHT22;13446;50.926;5.332;2022-10-30T11:06:38;33.00;48.80
25554;DHT22;13446;50.926;5.332;2022-10-30T11:09:13;33.10;49.10
25554;DHT22;13446;50.926;5.332;2022-10-30T11:11:39;33.30;48.90
25554;DHT22;13446;50.926;5.332;2022-10-30T11:14:27;33.70;48.10
25554;DHT22;13446;50.926;5.332;2022-10-30T11:19:19;33.50;48.30
25554;DHT22;13446;50.926;5.332;2022-10-30T11:21:46;33.90;48.80
25554;DHT22;13446;50.926;5.332;2022-10-30T11:24:32;33.90;48.00
25554;DHT22;13446;50.926;5.332;2022-10-30T11:27:14;33.70;47.90
25554;DHT22;13446;50.926;5.332;2022-10-30T11:29:46;34.20;48.00
25554;DHT22;13446;50.926;5.332;2022-10-30T11:32:16;35.10;47.00
25554;DHT22;13446;50.926;5.332;2022-10-30T11:34:42;35.20;47.40
25554;DHT22;13446;50.926;5.332;2022-10-30T11:37:07;35.50;47.80
25554;DHT22;13446;50.926;5.332;2022-10-30T11:40:00;35.70;46.00
25554;DHT22;13446;50.926;5.332;2022-10-30T11:42:26;35.20;46.50
25554;DHT22;13446;50.926;5.332;2022-10-30T11:44:54;35.70;46.50
25554;DHT22;13446;50.926;5.332;2022-10-30T11:47:21;35.80;46.40
25554;DHT22;13446;50.926;5.332;2022-10-30T11:49:52;35.40;46.20
25554;DHT22;13446;50.926;5.332;2022-10-30T11:52:20;35.10;47.20
25554;DHT22;13446;50.926;5.332;2022-10-30T11:54:52;33.50;48.40
25554;DHT22;13446;50.926;5.332;2022-10-30T11:57:23;32.80;48.80
25554;DHT22;13446;50.926;5.332;2022-10-30T11:59:52;32.30;50.00
25554;DHT22;13446;50.926;5.332;2022-10-30T12:04:44;31.70;52.00
25554;DHT22;13446;50.926;5.332;2022-10-30T12:07:17;32.00;52.80
25554;DHT22;13446;50.926;5.332;2022-10-30T12:09:47;31.80;52.30
25554;DHT22;13446;50.926;5.332;2022-10-30T12:15:17;31.00;52.60
25554;DHT22;13446;50.926;5.332;2022-10-30T12:20:35;31.90;52.90
25554;DHT22;13446;50.926;5.332;2022-10-30T12:23:11;32.30;51.00
25554;DHT22;13446;50.926;5.332;2022-10-30T12:25:40;32.50;50.40
25554;DHT22;13446;50.926;5.332;2022-10-30T12:28:14;34.00;50.30
25554;DHT22;13446;50.926;5.332;2022-10-30T12:30:52;34.80;48.50
25554;DHT22;13446;50.926;5.332;2022-10-30T12:33:23;33.70;47.50
25554;DHT22;13446;50.926;5.332;2022-10-30T12:35:57;32.50;48.50
25554;DHT22;13446;50.926;5.332;2022-10-30T12:43:29;31.20;51.80
25554;DHT22;13446;50.926;5.332;2022-10-30T12:46:00;31.30;51.10
25554;DHT22;13446;50.926;5.332;2022-10-30T12:48:29;31.40;51.10
25554;DHT22;13446;50.926;5.332;2022-10-30T12:53:27;31.10;52.10
25554;DHT22;13446;50.926;5.332;2022-10-30T12:55:56;30.50;52.80
25554;DHT22;13446;50.926;5.332;2022-10-30T13:01:05;29.60;54.20
25554;DHT22;13446;50.926;5.332;2022-10-30T13:03:34;29.30;55.90
25554;DHT22;13446;50.926;5.332;2022-10-30T13:11:01;28.80;57.90
25554;DHT22;13446;50.926;5.332;2022-10-30T13:13:35;28.50;58.80
25554;DHT22;13446;50.926;5.332;2022-10-30T13:16:01;28.40;59.60
25554;DHT22;13446;50.926;5.332;2022-10-30T13:18:27;28.50;61.00
25554;DHT22;13446;50.926;5.332;2022-10-30T13:23:32;28.60;60.60
25554;DHT22;13446;50.926;5.332;2022-10-30T13:26:05;28.50;61.40
25554;DHT22;13446;50.926;5.332;2022-10-30T13:28:33;28.50;63.30
25554;DHT22;13446;50.926;5.332;2022-10-30T13:33:54;28.70;63.20
25554;DHT22;13446;50.926;5.332;2022-10-30T13:36:42;28.80;64.00
25554;DHT22;13446;50.926;5.332;2022-10-30T13:44:28;28.00;66.90
25554;DHT22;13446;50.926;5.332;2022-10-30T13:47:07;27.70;67.10
25554;DHT22;13446;50.926;5.332;2022-10-30T13:54:33;26.60;78.70
25554;DHT22;13446;50.926;5.332;2022-10-30T13:57:02;26.50;80.60
25554;DHT22;13446;50.926;5.332;2022-10-30T13:59:49;25.90;83.10
25554;DHT22;13446;50.926;5.332;2022-10-30T14:07:31;26.90;84.70
25554;DHT22;13446;50.926;5.332;2022-10-30T14:10:04;26.60;85.30
25554;DHT22;13446;50.926;5.332;2022-10-30T14:12:51;26.70;85.50
25554;DHT22;13446;50.926;5.332;2022-10-30T14:20:39;26.80;84.60
25554;DHT22;13446;50.926;5.332;2022-10-30T14:23:05;26.50;86.30
25554;DHT22;13446;50.926;5.332;2022-10-30T14:25:32;26.00;87.40
25554;DHT22;13446;50.926;5.332;2022-10-30T14:27:57;25.50;89.50
25554;DHT22;13446;50.926;5.332;2022-10-30T14:30:23;25.00;91.30
25554;DHT22;13446;50.926;5.332;2022-10-30T14:32:51;25.00;92.60
25554;DHT22;13446;50.926;5.332;2022-10-30T14:35:30;25.00;93.20
25554;DHT22;13446;50.926;5.332;2022-10-30T14:38:05;25.00;93.90
25554;DHT22;13446;50.926;5.332;2022-10-30T14:43:27;24.80;96.40
25554;DHT22;13446;50.926;5.332;2022-10-30T14:46:00;24.80;97.40
25554;DHT22;13446;50.926;5.332;2022-10-30T14:48:32;24.50;98.50
25554;DHT22;13446;50.926;5.332;2022-10-30T14:53:46;24.40;99.80
25554;DHT22;13446;50.926;5.332;2022-10-30T14:58:41;24.40;99.90
25554;DHT22;13446;50.926;5.332;2022-10-30T15:06:24;24.20;99.90
25554;DHT22;13446;50.926;5.332;2022-10-30T15:09:02;24.10;99.90
25554;DHT22;13446;50.926;5.332;2022-10-30T15:14:47;23.90;99.90
25554;DHT22;13446;50.926;5.332;2022-10-30T15:17:04;23.50;99.90
25554;DHT22;13446;50.926;5.332;2022-10-30T15:19:36;23.50;99.90
25554;DHT22;13446;50.926;5.332;2022-10-30T15:22:01;23.50;99.90
25554;DHT22;13446;50.926;5.332;2022-10-30T15:24:27;23.50;99.90
25554;DHT22;13446;50.926;5.332;2022-10-30T15:26:54;23.40;99.90
25554;DHT22;13446;50.926;5.332;2022-10-30T15:29:32;23.40;99.90
25554;DHT22;13446;50.926;5.332;2022-10-30T15:32:00;23.40;99.90
25554;DHT22;13446;50.926;5.332;2022-10-30T15:34:27;23.40;99.90
25554;DHT22;13446;50.926;5.332;2022-10-30T15:36:53;23.30;99.90
25554;DHT22;13446;50.926;5.332;2022-10-30T15:39:18;23.30;99.90
25554;DHT22;13446;50.926;5.332;2022-10-30T15:41:49;23.10;99.90
25554;DHT22;13446;50.926;5.332;2022-10-30T15:44:18;23.00;99.90
25554;DHT22;13446;50.926;5.332;2022-10-30T15:46:45;23.00;99.90
25554;DHT22;13446;50.926;5.332;2022-10-30T15:49:13;22.90;99.90
25554;DHT22;13446;50.926;5.332;2022-10-30T15:51:43;22.90;99.90
25554;DHT22;13446;50.926;5.332;2022-10-30T15:54:09;22.80;99.90
25554;DHT22;13446;50.926;5.332;2022-10-30T15:56:37;22.70;99.90
25554;DHT22;13446;50.926;5.332;2022-10-30T15:59:06;22.60;99.90
25554;DHT22;13446;50.926;5.332;2022-10-30T16:01:44;22.60;99.90
25554;DHT22;13446;50.926;5.332;2022-10-30T16:04:16;22.40;99.90
25554;DHT22;13446;50.926;5.332;2022-10-30T16:07:00;22.30;99.90
25554;DHT22;13446;50.926;5.332;2022-10-30T16:09:29;22.20;99.90
25554;DHT22;13446;50.926;5.332;2022-10-30T16:11:56;22.20;99.90
25554;DHT22;13446;50.926;5.332;2022-10-30T16:14:26;22.00;99.90
25554;DHT22;13446;50.926;5.332;2022-10-30T16:16:52;21.80;99.90
25554;DHT22;13446;50.926;5.332;2022-10-30T16:19:52;21.90;99.90
25554;DHT22;13446;50.926;5.332;2022-10-30T16:22:12;21.80;99.90
25554;DHT22;13446;50.926;5.332;2022-10-30T16:24:38;21.80;99.90
25554;DHT22;13446;50.926;5.332;2022-10-30T16:27:05;21.70;99.90
25554;DHT22;13446;50.926;5.332;2022-10-30T16:29:31;21.70;99.90
25554;DHT22;13446;50.926;5.332;2022-10-30T16:31:58;21.50;99.90
25554;DHT22;13446;50.926;5.332;2022-10-30T16:34:24;21.50;99.90
25554;DHT22;13446;50.926;5.332;2022-10-30T16:36:50;21.60;99.90
25554;DHT22;13446;50.926;5.332;2022-10-30T16:39:16;21.60;99.90
25554;DHT22;13446;50.926;5.332;2022-10-30T16:41:43;21.50;99.90
25554;DHT22;13446;50.926;5.332;2022-10-30T16:44:13;21.40;99.90
25554;DHT22;13446;50.926;5.332;2022-10-30T16:49:16;21.40;99.90
25554;DHT22;13446;50.926;5.332;2022-10-30T16:51:42;21.40;99.90
25554;DHT22;13446;50.926;5.332;2022-10-30T16:54:16;21.40;99.90
25554;DHT22;13446;50.926;5.332;2022-10-30T16:56:43;21.40;99.90
25554;DHT22;13446;50.926;5.332;2022-10-30T16:59:17;21.30;99.90
25554;DHT22;13446;50.926;5.332;2022-10-30T17:01:44;21.30;99.90
25554;DHT22;13446;50.926;5.332;2022-10-30T17:04:16;21.10;99.90
25554;DHT22;13446;50.926;5.332;2022-10-30T17:06:42;21.10;99.90
25554;DHT22;13446;50.926;5.332;2022-10-30T17:09:14;21.00;99.90
25554;DHT22;13446;50.926;5.332;2022-10-30T17:11:45;20.90;99.90
25554;DHT22;13446;50.926;5.332;2022-10-30T17:14:15;20.80;99.90
25554;DHT22;13446;50.926;5.332;2022-10-30T17:16:41;20.80;99.90
25554;DHT22;13446;50.926;5.332;2022-10-30T17:21:56;20.80;99.90
25554;DHT22;13446;50.926;5.332;2022-10-30T17:24:24;20.80;99.90
25554;DHT22;13446;50.926;5.332;2022-10-30T17:26:53;20.80;99.90
25554;DHT22;13446;50.926;5.332;2022-10-30T17:37:39;20.50;99.90
25554;DHT22;13446;50.926;5.332;2022-10-30T17:40:05;20.40;99.90
25554;DHT22;13446;50.926;5.332;2022-10-30T17:42:30;20.30;99.90
25554;DHT22;13446;50.926;5.332;2022-10-30T17:44:56;20.20;99.90
25554;DHT22;13446;50.926;5.332;2022-10-30T17:47:21;20.20;99.90
25554;DHT22;13446;50.926;5.332;2022-10-30T17:49:48;20.20;99.90
25554;DHT22;13446;50.926;5.332;2022-10-30T17:52:14;20.20;99.90
25554;DHT22;13446;50.926;5.332;2022-10-30T17:54:40;19.90;99.90
25554;DHT22;13446;50.926;5.332;2022-10-30T17:57:08;19.60;99.90
25554;DHT22;13446;50.926;5.332;2022-10-30T17:59:33;19.60;99.90
25554;DHT22;13446;50.926;5.332;2022-10-30T18:01:59;19.60;99.90
25554;DHT22;13446;50.926;5.332;2022-10-30T18:04:25;19.60;99.90
25554;DHT22;13446;50.926;5.332;2022-10-30T18:06:50;19.50;99.90
25554;DHT22;13446;50.926;5.332;2022-10-30T18:09:16;19.60;99.90
25554;DHT22;13446;50.926;5.332;2022-10-30T18:11:42;19.60;99.90